createdAt,value
2022-08-25T00:01:37.643Z,8.93
2022-08-25T00:04:10.560Z,9.57
2022-08-25T00:06:38.454Z,9.20
2022-08-25T00:09:06.487Z,9.25
2022-08-25T00:11:35.614Z,9.32
2022-08-25T00:14:05.554Z,7.13
2022-08-25T00:16:32.744Z,6.60
2022-08-25T00:19:02.034Z,5.47
2022-08-25T00:21:31.456Z,5.85
2022-08-25T00:23:59.695Z,6.10
2022-08-25T00:26:27.561Z,6.60
2022-08-25T00:28:55.213Z,6.75
2022-08-25T00:31:38.669Z,7.95
2022-08-25T00:34:09.367Z,7.72
2022-08-25T00:36:37.001Z,7.90
2022-08-25T00:39:04.389Z,8.05
2022-08-25T00:41:31.125Z,8.15
2022-08-25T00:44:00.470Z,6.97
2022-08-25T00:46:31.034Z,6.30
2022-08-25T00:49:05.701Z,6.38
2022-08-25T00:51:58.538Z,6.72
2022-08-25T00:54:30.715Z,4.88
2022-08-25T00:56:59.244Z,5.55
2022-08-25T00:59:27.559Z,5.45
2022-08-25T01:01:55.428Z,6.78
2022-08-25T01:04:22.550Z,5.82
2022-08-25T01:06:49.530Z,6.35
2022-08-25T01:09:17.582Z,6.22
2022-08-25T01:11:46.415Z,6.00
2022-08-25T01:14:18.842Z,6.00
2022-08-25T01:16:45.805Z,6.63
2022-08-25T01:19:17.610Z,5.78
2022-08-25T01:21:48.811Z,5.78
2022-08-25T01:24:57.322Z,6.00
2022-08-25T01:27:23.958Z,5.45
2022-08-25T01:29:51.006Z,5.50
2022-08-25T01:32:17.819Z,5.30
2022-08-25T01:34:45.872Z,5.05
2022-08-25T01:37:15.585Z,3.65
2022-08-25T01:39:43.338Z,3.97
2022-08-25T01:42:15.674Z,3.78
2022-08-25T01:44:45.311Z,3.60
2022-08-25T01:47:13.526Z,3.33
2022-08-25T01:49:40.255Z,3.85
2022-08-25T01:52:21.341Z,4.13
2022-08-25T01:54:48.444Z,3.38
2022-08-25T01:57:15.260Z,3.70
2022-08-25T01:59:41.958Z,3.50
2022-08-25T02:02:08.759Z,3.63
2022-08-25T02:04:37.724Z,3.67
2022-08-25T02:07:06.548Z,3.90
2022-08-25T02:09:35.449Z,4.10
2022-08-25T02:12:02.202Z,4.97
2022-08-25T02:14:28.900Z,5.40
2022-08-25T02:16:56.315Z,5.90
2022-08-25T02:19:24.656Z,6.28
2022-08-25T02:21:51.672Z,7.03
2022-08-25T02:24:18.957Z,6.97
2022-08-25T02:26:45.705Z,5.93
2022-08-25T02:29:12.401Z,5.63
2022-08-25T02:31:39.882Z,5.80
2022-08-25T02:34:07.843Z,6.50
2022-08-25T02:36:35.000Z,7.72
2022-08-25T02:39:03.166Z,5.53
2022-08-25T02:41:31.785Z,6.05
2022-08-25T02:44:03.002Z,5.80
2022-08-25T02:46:31.224Z,4.80
2022-08-25T02:48:58.487Z,6.28
2022-08-25T02:51:28.497Z,5.65
2022-08-25T02:53:57.892Z,5.10
2022-08-25T02:56:25.878Z,5.35
2022-08-25T02:58:52.658Z,5.82
2022-08-25T03:01:19.515Z,5.85
2022-08-25T03:03:48.310Z,5.45
2022-08-25T03:06:18.307Z,5.00
2022-08-25T03:08:45.342Z,5.05
2022-08-25T03:11:12.236Z,5.45
2022-08-25T03:13:39.454Z,5.70
2022-08-25T03:16:11.401Z,5.78
2022-08-25T03:18:40.474Z,6.60
2022-08-25T03:21:08.107Z,6.55
2022-08-25T03:23:35.314Z,6.88
2022-08-25T03:26:20.804Z,6.95
2022-08-25T03:28:47.458Z,7.50
2022-08-25T03:31:14.257Z,7.30
2022-08-25T03:33:40.918Z,6.70
2022-08-25T03:36:09.378Z,8.00
2022-08-25T03:38:38.452Z,8.07
2022-08-25T03:41:30.332Z,7.80
2022-08-25T03:43:57.521Z,7.38
2022-08-25T03:46:32.449Z,7.47
2022-08-25T03:49:04.962Z,6.28
2022-08-25T03:51:35.467Z,6.90
2022-08-25T03:54:03.558Z,7.78
2022-08-25T03:56:30.954Z,7.97
2022-08-25T03:58:57.800Z,8.35
2022-08-25T04:01:25.507Z,8.30
2022-08-25T04:03:52.300Z,8.55
2022-08-25T04:06:19.840Z,7.70
2022-08-25T04:08:46.712Z,7.07
2022-08-25T04:11:17.455Z,8.43
2022-08-25T04:13:46.557Z,8.82
2022-08-25T04:16:15.071Z,8.93
2022-08-25T04:18:42.672Z,9.50
2022-08-25T04:21:10.642Z,9.23
2022-08-25T04:23:38.811Z,7.88
2022-08-25T04:26:14.489Z,6.15
2022-08-25T04:28:41.770Z,5.60
2022-08-25T04:31:09.713Z,5.50
2022-08-25T04:33:38.104Z,5.28
2022-08-25T04:36:11.394Z,6.00
2022-08-25T04:38:40.627Z,6.40
2022-08-25T04:41:11.464Z,7.50
2022-08-25T04:43:39.888Z,8.68
2022-08-25T04:46:12.417Z,6.40
2022-08-25T04:48:40.343Z,7.50
2022-08-25T04:51:12.523Z,8.10
2022-08-25T04:53:40.830Z,7.57
2022-08-25T04:56:10.103Z,8.70
2022-08-25T04:58:37.826Z,8.48
2022-08-25T05:01:06.409Z,8.65
2022-08-25T05:03:33.338Z,8.75
2022-08-25T05:06:00.012Z,9.55
2022-08-25T05:08:27.449Z,9.63
2022-08-25T05:10:56.512Z,10.82
2022-08-25T05:13:24.807Z,10.63
2022-08-25T05:15:57.579Z,9.95
2022-08-25T05:18:30.124Z,8.05
2022-08-25T05:21:01.195Z,7.50
2022-08-25T05:23:27.823Z,6.65
2022-08-25T05:25:54.667Z,7.80
2022-08-25T05:28:21.624Z,8.65
2022-08-25T05:30:51.602Z,8.38
2022-08-25T05:33:18.443Z,7.95
2022-08-25T05:35:45.197Z,7.38
2022-08-25T05:38:15.353Z,7.38
2022-08-25T05:40:42.548Z,6.65
2022-08-25T05:43:09.363Z,7.13
2022-08-25T05:45:36.627Z,7.22
2022-08-25T05:48:03.574Z,7.97
2022-08-25T05:50:30.221Z,8.75
2022-08-25T05:52:56.824Z,9.77
2022-08-25T05:55:23.550Z,10.35
2022-08-25T05:57:50.357Z,11.68
2022-08-25T06:00:17.676Z,11.80
2022-08-25T06:02:46.206Z,12.35
2022-08-25T06:05:19.459Z,14.88
2022-08-25T06:07:48.487Z,15.55
2022-08-25T06:10:16.413Z,14.60
2022-08-25T06:12:44.706Z,16.05
2022-08-25T06:15:14.503Z,16.60
2022-08-25T06:17:42.812Z,16.67
2022-08-25T06:20:13.926Z,16.25
2022-08-25T06:22:40.898Z,16.30
2022-08-25T06:25:10.222Z,15.20
2022-08-25T06:27:37.540Z,14.52
2022-08-25T06:30:07.631Z,13.93
2022-08-25T06:32:36.605Z,13.85
2022-08-25T06:35:05.012Z,14.73
2022-08-25T06:37:32.682Z,14.18
2022-08-25T06:39:59.354Z,12.95
2022-08-25T06:42:26.311Z,12.55
2022-08-25T06:44:53.284Z,10.98
2022-08-25T06:47:20.379Z,10.63
2022-08-25T06:49:47.447Z,9.52
2022-08-25T06:52:14.545Z,8.80
2022-08-25T06:54:41.366Z,8.65
2022-08-25T06:57:08.376Z,7.55
2022-08-25T06:59:36.032Z,7.43
2022-08-25T07:02:04.483Z,7.88
2022-08-25T07:04:32.197Z,7.13
2022-08-25T07:06:59.071Z,7.03
2022-08-25T07:09:25.815Z,6.47
2022-08-25T07:11:52.477Z,6.65
2022-08-25T07:14:20.036Z,6.43
2022-08-25T07:16:50.397Z,6.13
2022-08-25T07:19:20.681Z,6.07
2022-08-25T07:21:51.330Z,5.28
2022-08-25T07:24:18.429Z,5.28
2022-08-25T07:26:46.670Z,6.03
2022-08-25T07:29:17.462Z,5.70
2022-08-25T07:31:44.658Z,5.40
2022-08-25T07:34:30.234Z,5.15
2022-08-25T07:36:58.574Z,5.55
2022-08-25T07:39:26.736Z,5.50
2022-08-25T07:41:55.780Z,5.75
2022-08-25T07:44:23.632Z,5.32
2022-08-25T07:46:51.232Z,5.22
2022-08-25T07:49:23.266Z,5.43
2022-08-25T07:52:05.403Z,5.65
2022-08-25T07:54:37.593Z,5.35
2022-08-25T07:59:39.434Z,5.30
2022-08-25T08:02:08.682Z,5.38
2022-08-25T08:04:37.272Z,5.60
2022-08-25T08:07:04.746Z,5.05
2022-08-25T08:09:38.690Z,5.70
2022-08-25T08:12:05.779Z,5.13
2022-08-25T08:14:32.745Z,5.35
2022-08-25T08:16:59.793Z,5.20
2022-08-25T08:19:26.696Z,5.75
2022-08-25T08:21:54.281Z,5.65
2022-08-25T08:24:40.776Z,5.30
2022-08-25T08:27:09.152Z,4.90
2022-08-25T08:29:36.948Z,5.50
2022-08-25T08:32:05.781Z,4.97
2022-08-25T08:34:33.253Z,5.50
2022-08-25T08:37:00.525Z,5.88
2022-08-25T08:39:28.285Z,5.07
2022-08-25T08:42:18.443Z,5.15
2022-08-25T08:44:45.093Z,5.10
2022-08-25T08:47:33.729Z,5.63
2022-08-25T08:50:27.712Z,5.30
2022-08-25T08:53:22.157Z,5.35
2022-08-25T08:55:53.516Z,5.30
2022-08-25T08:58:51.096Z,5.60
2022-08-25T09:01:29.319Z,4.93
2022-08-25T09:04:09.679Z,4.93
2022-08-25T09:06:42.801Z,4.97
2022-08-25T09:09:14.617Z,5.05
2022-08-25T09:12:12.816Z,4.60
2022-08-25T09:14:57.420Z,5.05
2022-08-25T09:17:54.637Z,4.60
2022-08-25T09:20:46.667Z,4.25
2022-08-25T09:23:34.199Z,4.72
2022-08-25T09:26:33.104Z,5.10
2022-08-25T09:29:07.286Z,4.97
2022-08-25T09:31:43.411Z,4.53
2022-08-25T09:34:21.209Z,4.13
2022-08-25T09:36:50.858Z,4.60
2022-08-25T09:39:20.508Z,4.80
2022-08-25T09:41:52.081Z,4.80
2022-08-25T09:44:28.144Z,4.78
2022-08-25T09:47:02.564Z,4.45
2022-08-25T09:49:44.442Z,4.63
2022-08-25T09:52:41.770Z,4.30
2022-08-25T09:55:08.497Z,4.20
2022-08-25T09:57:44.134Z,4.63
2022-08-25T10:00:15.240Z,4.43
2022-08-25T10:02:44.421Z,4.65
2022-08-25T10:05:25.998Z,4.10
2022-08-25T10:10:38.150Z,4.30
2022-08-25T10:13:23.039Z,4.25
2022-08-25T10:16:20.587Z,4.53
2022-08-25T10:19:01.989Z,4.50
2022-08-25T10:21:28.695Z,4.38
2022-08-25T10:23:58.905Z,4.15
2022-08-25T10:26:41.331Z,4.25
2022-08-25T10:29:34.274Z,4.30
2022-08-25T10:32:16.343Z,4.00
2022-08-25T10:34:53.861Z,4.25
2022-08-25T10:37:59.092Z,4.22
2022-08-25T10:40:37.397Z,4.28
2022-08-25T10:43:32.414Z,4.20
2022-08-25T10:46:35.368Z,3.95
2022-08-25T10:49:13.666Z,4.00
2022-08-25T10:52:05.437Z,3.92
2022-08-25T10:54:40.812Z,4.75
2022-08-25T10:57:43.586Z,3.55
2022-08-25T11:00:17.708Z,3.88
2022-08-25T11:03:18.567Z,3.80
2022-08-25T11:06:02.851Z,3.53
2022-08-25T11:08:48.712Z,3.42
2022-08-25T11:11:28.468Z,3.95
2022-08-25T11:14:11.255Z,3.60
2022-08-25T11:16:45.222Z,3.60
2022-08-25T11:19:30.733Z,3.30
2022-08-25T11:22:19.619Z,3.40
2022-08-25T11:25:23.347Z,3.20
2022-08-25T11:28:02.873Z,3.40
2022-08-25T11:30:29.868Z,3.35
2022-08-25T11:32:58.115Z,3.17
2022-08-25T11:35:41.632Z,3.30
2022-08-25T11:38:08.958Z,2.90
2022-08-25T11:41:11.469Z,3.13
2022-08-25T11:44:09.243Z,3.10
2022-08-25T11:46:57.908Z,3.33
2022-08-25T11:49:49.871Z,3.70
2022-08-25T11:52:53.900Z,3.42
2022-08-25T11:55:27.828Z,3.30
2022-08-25T11:58:33.788Z,3.15
2022-08-25T12:01:03.135Z,3.72
2022-08-25T12:03:32.706Z,3.45
2022-08-25T12:06:25.439Z,3.60
2022-08-25T12:09:01.206Z,3.30
2022-08-25T12:11:54.679Z,3.33
2022-08-25T12:14:24.586Z,3.80
2022-08-25T12:16:55.014Z,3.28
2022-08-25T12:19:38.052Z,3.67
2022-08-25T12:22:04.729Z,3.47
2022-08-25T12:24:48.636Z,3.45
2022-08-25T12:27:33.858Z,3.55
2022-08-25T12:30:38.874Z,3.33
2022-08-25T12:33:33.831Z,3.75
2022-08-25T12:36:04.436Z,3.33
2022-08-25T12:38:52.061Z,3.30
2022-08-25T12:41:31.073Z,3.70
2022-08-25T12:44:38.089Z,3.25
2022-08-25T12:47:23.662Z,3.10
2022-08-25T12:49:50.813Z,3.42
2022-08-25T12:52:21.499Z,3.28
2022-08-25T12:55:06.405Z,3.15
2022-08-25T12:57:41.303Z,6.13
2022-08-25T13:03:04.725Z,2.83
2022-08-25T13:06:00.109Z,2.90
2022-08-25T13:08:47.010Z,3.03
2022-08-25T13:11:23.606Z,2.90
2022-08-25T13:14:19.927Z,3.30
2022-08-25T13:16:55.511Z,3.13
2022-08-25T13:19:22.611Z,3.10
2022-08-25T13:21:49.880Z,3.03
2022-08-25T13:24:26.902Z,3.15
2022-08-25T13:27:24.843Z,3.47
2022-08-25T13:30:03.812Z,3.08
2022-08-25T13:32:35.600Z,2.92
2022-08-25T13:35:12.155Z,3.40
2022-08-25T13:37:41.144Z,3.05
2022-08-25T13:40:20.054Z,3.33
2022-08-25T13:43:05.796Z,2.88
2022-08-25T13:45:41.312Z,3.25
2022-08-25T13:48:23.056Z,3.00
2022-08-25T13:50:53.133Z,3.17
2022-08-25T13:53:26.008Z,3.13
2022-08-25T13:55:59.700Z,3.30
2022-08-25T13:58:39.294Z,3.35
2022-08-25T14:01:44.086Z,3.20
2022-08-25T14:04:26.711Z,3.50
2022-08-25T14:07:15.203Z,3.10
2022-08-25T14:09:54.118Z,3.50
2022-08-25T14:12:37.780Z,3.42
2022-08-25T14:15:27.044Z,3.00
2022-08-25T14:18:17.522Z,3.58
2022-08-25T14:20:50.439Z,3.47
2022-08-25T14:23:25.816Z,3.17
2022-08-25T14:25:55.474Z,3.20
2022-08-25T14:28:29.010Z,3.10
2022-08-25T14:31:27.709Z,3.08
2022-08-25T14:34:29.548Z,3.10
2022-08-25T14:36:56.597Z,3.10
2022-08-25T14:39:23.316Z,3.10
2022-08-25T14:41:52.640Z,3.10
2022-08-25T14:44:21.058Z,2.97
2022-08-25T14:46:54.115Z,3.20
2022-08-25T14:49:29.699Z,2.72
2022-08-25T14:52:01.063Z,3.05
2022-08-25T14:54:29.264Z,3.22
2022-08-25T14:56:57.142Z,3.30
2022-08-25T14:59:24.043Z,3.20
2022-08-25T15:01:50.824Z,3.30
2022-08-25T15:04:22.363Z,3.03
2022-08-25T15:06:53.813Z,3.40
2022-08-25T15:09:21.490Z,3.40
2022-08-25T15:11:51.933Z,3.50
2022-08-25T15:14:28.835Z,3.33
2022-08-25T15:17:01.210Z,3.20
2022-08-25T15:19:28.821Z,3.10
2022-08-25T15:21:57.831Z,3.33
2022-08-25T15:24:26.843Z,3.40
2022-08-25T15:27:01.828Z,3.40
2022-08-25T15:29:30.612Z,3.50
2022-08-25T15:31:58.701Z,3.33
2022-08-25T15:34:25.639Z,3.00
2022-08-25T15:36:52.493Z,2.88
2022-08-25T15:39:19.735Z,3.10
2022-08-25T15:41:52.275Z,3.13
2022-08-25T15:44:19.798Z,3.20
2022-08-25T15:46:49.580Z,3.55
2022-08-25T15:49:20.357Z,3.22
2022-08-25T15:51:47.550Z,3.20
2022-08-25T15:54:15.759Z,3.10
2022-08-25T15:56:44.040Z,3.15
2022-08-25T15:59:13.357Z,3.05
2022-08-25T16:01:41.193Z,2.88
2022-08-25T16:04:07.996Z,3.22
2022-08-25T16:06:34.619Z,3.60
2022-08-25T16:09:02.328Z,3.33
2022-08-25T16:11:30.719Z,3.20
2022-08-25T16:13:58.045Z,3.30
2022-08-25T16:16:26.960Z,3.53
2022-08-25T16:18:54.601Z,3.25
2022-08-25T16:21:25.593Z,3.30
2022-08-25T16:24:02.635Z,3.53
2022-08-25T16:26:32.991Z,3.40
2022-08-25T16:28:59.630Z,3.28
2022-08-25T16:31:27.255Z,3.22
2022-08-25T16:33:57.666Z,3.53
2022-08-25T16:36:27.231Z,3.38
2022-08-25T16:38:57.340Z,3.17
2022-08-25T16:41:26.120Z,4.00
2022-08-25T16:43:53.151Z,3.47
2022-08-25T16:46:21.202Z,3.40
2022-08-25T16:48:48.608Z,3.45
2022-08-25T16:51:19.419Z,3.70
2022-08-25T16:54:08.321Z,3.65
2022-08-25T16:56:37.162Z,3.50
2022-08-25T16:59:06.362Z,4.03
2022-08-25T17:01:36.391Z,3.78
2022-08-25T17:04:03.781Z,3.70
2022-08-25T17:06:35.723Z,3.38
2022-08-25T17:09:02.406Z,3.70
2022-08-25T17:11:32.800Z,3.10
2022-08-25T17:14:06.802Z,3.10
2022-08-25T17:16:38.201Z,3.88
2022-08-25T17:19:08.055Z,4.25
2022-08-25T17:21:40.903Z,4.68
2022-08-25T17:24:12.852Z,3.97
2022-08-25T17:26:41.340Z,4.60
2022-08-25T17:29:08.394Z,4.70
2022-08-25T17:31:39.993Z,4.68
2022-08-25T17:34:12.862Z,4.75
2022-08-25T17:36:43.945Z,4.32
2022-08-25T17:39:12.596Z,4.60
2022-08-25T17:41:39.795Z,5.13
2022-08-25T17:44:07.531Z,4.53
2022-08-25T17:46:34.199Z,5.18
2022-08-25T17:49:00.878Z,4.70
2022-08-25T17:51:29.701Z,5.35
2022-08-25T17:53:58.774Z,5.07
2022-08-25T17:56:27.330Z,5.05
2022-08-25T17:58:55.760Z,5.18
2022-08-25T18:01:29.591Z,5.07
2022-08-25T18:03:57.424Z,5.57
2022-08-25T18:06:24.935Z,5.60
2022-08-25T18:08:58.692Z,5.10
2022-08-25T18:11:27.069Z,5.57
2022-08-25T18:13:55.650Z,7.72
2022-08-25T18:16:23.217Z,6.57
2022-08-25T18:18:50.394Z,5.82
2022-08-25T18:21:20.273Z,5.95
2022-08-25T18:23:47.716Z,6.07
2022-08-25T18:26:17.132Z,5.68
2022-08-25T18:28:48.713Z,6.07
2022-08-25T18:31:15.507Z,5.40
2022-08-25T18:33:46.768Z,5.85
2022-08-25T18:36:13.772Z,5.85
2022-08-25T18:39:00.438Z,5.93
2022-08-25T18:41:33.027Z,6.40
2022-08-25T18:43:59.699Z,6.15
2022-08-25T18:46:26.322Z,6.63
2022-08-25T18:48:53.243Z,7.13
2022-08-25T18:51:22.924Z,6.88
2022-08-25T18:53:54.457Z,6.82
2022-08-25T18:56:26.415Z,7.55
2022-08-25T18:58:53.143Z,8.38
2022-08-25T19:01:20.528Z,8.63
2022-08-25T19:03:48.368Z,9.43
2022-08-25T19:06:15.461Z,10.50
2022-08-25T19:08:42.329Z,10.80
2022-08-25T19:11:09.677Z,9.73
2022-08-25T19:13:36.535Z,9.57
2022-08-25T19:16:11.829Z,10.30
2022-08-25T19:18:38.998Z,10.10
2022-08-25T19:21:08.198Z,11.50
2022-08-25T19:23:37.987Z,11.55
2022-08-25T19:26:08.929Z,13.27
2022-08-25T19:28:45.888Z,12.40
2022-08-25T19:31:22.772Z,14.02
2022-08-25T19:33:52.391Z,15.15
2022-08-25T19:36:31.298Z,14.77
2022-08-25T19:39:01.091Z,13.70
2022-08-25T19:41:29.530Z,13.45
2022-08-25T19:43:57.600Z,15.35
2022-08-25T19:46:35.675Z,16.15
2022-08-25T19:49:22.359Z,16.55
2022-08-25T19:51:51.425Z,17.38
2022-08-25T19:54:27.802Z,17.92
2022-08-25T19:56:55.745Z,21.52
2022-08-25T19:59:42.259Z,20.70
2022-08-25T20:02:15.142Z,23.17
2022-08-25T20:04:42.224Z,22.30
2022-08-25T20:07:09.207Z,23.05
2022-08-25T20:09:40.922Z,21.65
2022-08-25T20:12:09.517Z,22.23
2022-08-25T20:14:36.515Z,21.40
2022-08-25T20:17:04.242Z,22.17
2022-08-25T20:19:41.419Z,22.30
2022-08-25T20:22:11.212Z,24.10
2022-08-25T20:24:55.910Z,26.83
2022-08-25T20:27:34.220Z,26.77
2022-08-25T20:30:03.145Z,24.75
2022-08-25T20:32:31.884Z,25.02
2022-08-25T20:34:58.598Z,24.45
2022-08-25T20:37:25.792Z,21.65
2022-08-25T20:39:52.828Z,21.75
2022-08-25T20:42:19.719Z,19.85
2022-08-25T20:44:47.024Z,19.08
2022-08-25T20:47:14.916Z,17.60
2022-08-25T20:49:44.832Z,17.65
2022-08-25T20:52:12.148Z,17.17
2022-08-25T20:54:40.281Z,16.23
2022-08-25T20:57:07.936Z,16.83
2022-08-25T20:59:34.924Z,15.57
2022-08-25T21:02:02.111Z,15.75
2022-08-25T21:04:30.126Z,14.88
2022-08-25T21:06:58.129Z,16.05
2022-08-25T21:09:26.396Z,15.18
2022-08-25T21:11:56.577Z,14.70
2022-08-25T21:14:24.169Z,14.48
2022-08-25T21:16:52.407Z,14.63
2022-08-25T21:19:26.738Z,14.25
2022-08-25T21:21:59.467Z,13.68
2022-08-25T21:24:28.322Z,14.25
2022-08-25T21:26:58.592Z,15.07
2022-08-25T21:31:56.387Z,14.32
2022-08-25T21:34:23.438Z,15.45
2022-08-25T21:36:50.148Z,14.85
2022-08-25T21:39:17.183Z,15.35
2022-08-25T21:41:44.615Z,13.63
2022-08-25T21:44:12.763Z,13.73
2022-08-25T21:46:42.272Z,13.95
2022-08-25T21:49:20.894Z,14.13
2022-08-25T21:51:47.574Z,12.65
2022-08-25T21:54:16.880Z,12.73
2022-08-25T21:56:48.604Z,12.52
2022-08-25T21:59:19.147Z,11.25
2022-08-25T22:01:46.067Z,11.52
2022-08-25T22:04:14.244Z,10.77
2022-08-25T22:06:42.051Z,10.50
2022-08-25T22:09:12.689Z,10.43
2022-08-25T22:11:42.219Z,10.20
2022-08-25T22:14:10.013Z,8.93
2022-08-25T22:16:38.144Z,8.10
2022-08-25T22:19:06.203Z,7.70
2022-08-25T22:21:33.407Z,7.82
2022-08-25T22:24:00.607Z,7.55
2022-08-25T22:26:29.636Z,8.00
2022-08-25T22:28:57.802Z,7.60
2022-08-25T22:31:25.152Z,7.43
2022-08-25T22:33:52.329Z,7.65
2022-08-25T22:36:29.897Z,7.20
2022-08-25T22:38:57.480Z,7.07
2022-08-25T22:41:26.921Z,6.43
2022-08-25T22:43:56.572Z,6.75
2022-08-25T22:46:27.863Z,6.95
2022-08-25T22:48:55.931Z,6.63
2022-08-25T22:51:28.242Z,5.78
2022-08-25T22:53:55.313Z,5.82
2022-08-25T22:56:30.746Z,5.22
2022-08-25T22:59:03.127Z,5.20
2022-08-25T23:01:31.775Z,4.80
2022-08-25T23:04:00.952Z,5.15
2022-08-25T23:06:29.393Z,4.40
2022-08-25T23:08:56.299Z,5.35
2022-08-25T23:11:24.368Z,4.15
2022-08-25T23:13:55.272Z,4.45
2022-08-25T23:16:22.898Z,3.67
2022-08-25T23:18:49.861Z,3.90
2022-08-25T23:21:40.916Z,3.47
2022-08-25T23:24:08.757Z,3.97
2022-08-25T23:26:42.403Z,3.67
2022-08-25T23:31:46.941Z,3.50
2022-08-25T23:34:15.251Z,3.65
2022-08-25T23:36:42.146Z,3.60
2022-08-25T23:39:09.126Z,4.05
2022-08-25T23:41:36.961Z,4.00
2022-08-25T23:44:09.295Z,4.47
2022-08-25T23:46:39.003Z,4.68
2022-08-25T23:49:08.421Z,4.07
2022-08-25T23:51:38.103Z,4.13
2022-08-25T23:54:09.602Z,3.47
2022-08-25T23:56:44.594Z,3.80
2022-08-25T23:59:18.148Z,4.00
